Archival Weather

Greater Kankakee

Kankakee, Illinois (KIKK)

Report from: Wednesday, December 6, 2023 12:55 AM CST
Current time: Saturday, February 24, 2024 9:27 AM CST

Current weather – Weather history – Daily summaries
Weather forecast

Temperature-0.5°C (31.1°F)
Wind chill-4.2°C (24.5°F)
Dew point-2.3°C (27.9°F)
Winds 6 kts (3.1 m/s, 6.9 mph) West-Northwest (290°)
Visibility10 mi. (16.1 km)
Clouds Scattered clouds 3,500 ft. (1,067 m)
Altimeter30.29 in.Hg (1026 mB)
Relative humidity88 %
Density altitude-2,242 ft. (-683 m)
Remarks Fully automated report
Automated weather observing station with precipitation discriminator
Present weather sensor not operating
Flight conditions Visual Meteorological Conditions
Raw dataKIKK 060655Z AUTO 29006KT 10SM SCT035 00/M02 A3029 RMK AO2 T10051023 PWINO
An error has occurred. This application may no longer respond until reloaded. Reload 🗙